createdAt,value
2022-08-26T00:00:11.023Z,20.20
2022-08-26T00:03:01.246Z,20.20
2022-08-26T00:05:36.088Z,20.20
2022-08-26T00:08:05.850Z,20.20
2022-08-26T00:10:41.201Z,20.20
2022-08-26T00:13:10.836Z,20.10
2022-08-26T00:15:47.212Z,20.20
2022-08-26T00:18:22.313Z,20.10
2022-08-26T00:20:58.110Z,20.10
2022-08-26T00:23:26.636Z,20.10
2022-08-26T00:26:04.216Z,20.00
2022-08-26T00:28:32.769Z,20.10
2022-08-26T00:31:10.804Z,20.00
2022-08-26T00:33:42.231Z,20.00
2022-08-26T00:36:19.945Z,20.00
2022-08-26T00:38:49.675Z,19.90
2022-08-26T00:41:27.308Z,19.90
2022-08-26T00:43:56.093Z,19.90
2022-08-26T00:46:37.130Z,19.90
2022-08-26T00:49:12.217Z,19.90
2022-08-26T00:51:52.463Z,19.90
2022-08-26T00:54:27.077Z,19.90
2022-08-26T00:57:20.232Z,19.90
2022-08-26T00:59:58.389Z,19.90
2022-08-26T01:02:33.201Z,19.90
2022-08-26T01:05:12.764Z,19.90
2022-08-26T01:07:47.125Z,19.80
2022-08-26T01:10:21.051Z,19.80
2022-08-26T01:13:01.321Z,19.90
2022-08-26T01:15:35.970Z,19.90
2022-08-26T01:18:12.247Z,19.90
2022-08-26T01:20:52.871Z,19.90
2022-08-26T01:23:36.474Z,19.80
2022-08-26T01:26:09.239Z,19.80
2022-08-26T01:28:57.155Z,19.80
2022-08-26T01:31:36.317Z,19.90
2022-08-26T01:34:11.328Z,19.90
2022-08-26T01:36:51.335Z,19.90
2022-08-26T01:39:22.088Z,19.90
2022-08-26T01:41:59.281Z,19.80
2022-08-26T01:44:36.392Z,19.80
2022-08-26T01:47:12.194Z,19.80
2022-08-26T01:49:41.411Z,19.80
2022-08-26T01:52:18.167Z,19.80
2022-08-26T01:54:53.108Z,19.80
2022-08-26T01:57:30.531Z,19.80
2022-08-26T02:00:03.015Z,19.80
2022-08-26T02:02:45.296Z,19.80
2022-08-26T02:05:22.843Z,19.80
2022-08-26T02:07:58.340Z,19.80
2022-08-26T02:10:28.303Z,19.70
2022-08-26T02:13:03.685Z,19.70
2022-08-26T02:15:33.968Z,19.70
2022-08-26T02:18:14.041Z,19.70
2022-08-26T02:20:42.584Z,19.70
2022-08-26T02:23:18.315Z,19.70
2022-08-26T02:25:53.952Z,19.60
2022-08-26T02:28:28.220Z,19.60
2022-08-26T02:30:56.999Z,19.60
2022-08-26T02:33:31.606Z,19.60
2022-08-26T02:35:59.884Z,19.60
2022-08-26T02:38:36.524Z,19.70
2022-08-26T02:41:08.092Z,19.70
2022-08-26T02:43:43.332Z,19.70
2022-08-26T02:46:27.790Z,19.60
2022-08-26T02:49:05.354Z,19.60
2022-08-26T02:51:34.759Z,19.60
2022-08-26T02:54:09.364Z,19.60
2022-08-26T02:56:39.666Z,19.50
2022-08-26T02:59:14.374Z,19.50
2022-08-26T03:01:51.035Z,19.50
2022-08-26T03:04:33.549Z,19.50
2022-08-26T03:07:01.961Z,19.40
2022-08-26T03:09:37.577Z,19.40
2022-08-26T03:12:07.704Z,19.30
2022-08-26T03:14:43.422Z,19.30
2022-08-26T03:17:11.928Z,19.30
2022-08-26T03:19:49.789Z,19.30
2022-08-26T03:22:21.243Z,19.30
2022-08-26T03:24:56.222Z,19.30
2022-08-26T03:27:25.819Z,19.30
2022-08-26T03:30:18.351Z,19.30
2022-08-26T03:32:46.923Z,19.20
2022-08-26T03:35:22.479Z,19.10
2022-08-26T03:37:51.124Z,19.10
2022-08-26T03:40:29.103Z,19.10
2022-08-26T03:42:59.091Z,19.10
2022-08-26T03:45:35.406Z,19.10
2022-08-26T03:48:04.741Z,19.10
2022-08-26T03:50:40.460Z,19.00
2022-08-26T03:53:12.931Z,19.00
2022-08-26T03:55:49.331Z,19.00
2022-08-26T03:58:24.591Z,18.90
2022-08-26T04:00:59.252Z,18.90
2022-08-26T04:03:51.909Z,18.90
2022-08-26T04:06:26.413Z,18.90
2022-08-26T04:08:56.125Z,18.80
2022-08-26T04:11:35.363Z,18.80
2022-08-26T04:14:09.956Z,18.80
2022-08-26T04:16:45.461Z,18.80
2022-08-26T04:19:16.074Z,18.70
2022-08-26T04:21:51.618Z,18.80
2022-08-26T04:24:21.864Z,18.80
2022-08-26T04:26:57.453Z,18.80
2022-08-26T04:29:28.073Z,18.70
2022-08-26T04:32:03.425Z,18.80
2022-08-26T04:34:32.967Z,18.70
2022-08-26T04:37:08.429Z,18.80
2022-08-26T04:39:37.146Z,18.80
2022-08-26T04:42:12.321Z,18.80
2022-08-26T04:44:42.345Z,18.80
2022-08-26T04:47:17.432Z,18.80
2022-08-26T04:49:47.195Z,18.70
2022-08-26T04:52:22.451Z,18.70
2022-08-26T04:54:51.557Z,18.80
2022-08-26T04:57:26.367Z,18.80
2022-08-26T04:59:56.069Z,18.80
2022-08-26T05:02:31.541Z,18.80
2022-08-26T05:05:07.720Z,18.70
2022-08-26T05:07:42.376Z,18.60
2022-08-26T05:10:11.588Z,18.60
2022-08-26T05:12:46.377Z,18.60
2022-08-26T05:15:16.288Z,18.60
2022-08-26T05:17:51.713Z,18.60
2022-08-26T05:20:25.164Z,18.60
2022-08-26T05:23:01.732Z,18.60
2022-08-26T05:25:30.383Z,18.60
2022-08-26T05:28:06.363Z,18.70
2022-08-26T05:30:36.974Z,18.70
2022-08-26T05:33:12.480Z,18.70
2022-08-26T05:35:40.908Z,18.80
2022-08-26T05:38:17.490Z,18.70
2022-08-26T05:40:49.271Z,18.80
2022-08-26T05:43:28.564Z,18.80
2022-08-26T05:46:06.586Z,18.80
2022-08-26T05:48:44.442Z,18.80
2022-08-26T05:51:13.821Z,18.80
2022-08-26T05:53:54.502Z,18.90
2022-08-26T05:56:26.228Z,18.90
2022-08-26T05:59:01.758Z,18.90
2022-08-26T06:01:37.970Z,18.90
2022-08-26T06:04:20.062Z,18.90
2022-08-26T06:06:48.862Z,18.80
2022-08-26T06:09:24.799Z,18.90
2022-08-26T06:11:53.654Z,18.90
2022-08-26T06:14:29.459Z,19.00
2022-08-26T06:16:59.308Z,19.10
2022-08-26T06:19:34.611Z,19.10
2022-08-26T06:22:30.774Z,19.10
2022-08-26T06:25:17.365Z,19.10
2022-08-26T06:27:52.574Z,19.10
2022-08-26T06:30:21.181Z,19.20
2022-08-26T06:32:58.444Z,19.30
2022-08-26T06:35:27.417Z,19.30
2022-08-26T06:38:02.424Z,19.40
2022-08-26T06:40:31.638Z,19.40
2022-08-26T06:43:07.756Z,19.30
2022-08-26T06:45:37.455Z,19.30
2022-08-26T06:48:15.073Z,19.40
2022-08-26T06:50:44.582Z,19.50
2022-08-26T06:53:21.565Z,19.50
2022-08-26T06:55:51.902Z,19.50
2022-08-26T06:58:26.849Z,19.60
2022-08-26T07:00:56.168Z,19.60
2022-08-26T07:03:41.497Z,19.60
2022-08-26T07:06:11.302Z,19.60
2022-08-26T07:08:46.843Z,19.70
2022-08-26T07:11:16.352Z,19.70
2022-08-26T07:13:51.485Z,19.80
2022-08-26T07:16:20.552Z,19.80
2022-08-26T07:18:59.821Z,19.80
2022-08-26T07:21:31.930Z,19.70
2022-08-26T07:24:06.578Z,19.70
2022-08-26T07:26:35.201Z,19.80
2022-08-26T07:29:10.859Z,19.90
2022-08-26T07:31:42.390Z,20.10
2022-08-26T07:34:20.589Z,19.90
2022-08-26T07:36:48.904Z,19.90
2022-08-26T07:39:23.896Z,19.90
2022-08-26T07:41:54.358Z,19.90
2022-08-26T07:44:29.607Z,20.00
2022-08-26T07:46:58.247Z,20.00
2022-08-26T07:49:34.743Z,20.00
2022-08-26T07:52:03.714Z,20.10
2022-08-26T07:54:38.648Z,20.20
2022-08-26T07:57:09.363Z,20.10
2022-08-26T07:59:45.929Z,20.10
2022-08-26T08:02:33.550Z,20.20
2022-08-26T08:05:11.774Z,20.20
2022-08-26T08:07:45.386Z,20.20
2022-08-26T08:10:22.566Z,20.30
2022-08-26T08:12:54.030Z,20.40
2022-08-26T08:15:34.663Z,20.40
2022-08-26T08:18:04.398Z,20.40
2022-08-26T08:20:47.697Z,20.40
2022-08-26T08:23:23.098Z,20.40
2022-08-26T08:25:59.707Z,20.40
2022-08-26T08:28:28.514Z,20.30
2022-08-26T08:31:04.720Z,20.40
2022-08-26T08:33:36.658Z,20.50
2022-08-26T08:36:18.425Z,20.50
2022-08-26T08:38:49.163Z,20.50
2022-08-26T08:41:38.697Z,20.50
2022-08-26T08:44:14.717Z,20.40
2022-08-26T08:46:51.672Z,20.40
2022-08-26T08:49:20.848Z,20.50
2022-08-26T08:52:02.921Z,20.60
2022-08-26T08:54:34.079Z,20.80
2022-08-26T08:57:15.020Z,20.80
2022-08-26T08:59:52.397Z,20.90
2022-08-26T09:02:34.791Z,20.90
2022-08-26T09:05:15.831Z,21.10
2022-08-26T09:07:56.697Z,21.00
2022-08-26T09:10:35.198Z,21.00
2022-08-26T09:13:16.835Z,21.00
2022-08-26T09:15:55.899Z,21.00
2022-08-26T09:18:41.937Z,21.00
2022-08-26T09:21:17.860Z,21.00
2022-08-26T09:23:55.030Z,21.10
2022-08-26T09:26:29.348Z,21.20
2022-08-26T09:29:08.333Z,21.20
2022-08-26T09:31:40.498Z,21.10
2022-08-26T09:34:22.903Z,21.10
2022-08-26T09:36:53.829Z,21.00
2022-08-26T09:39:43.724Z,20.90
2022-08-26T09:42:16.821Z,20.80
2022-08-26T09:45:03.622Z,20.70
2022-08-26T09:47:34.079Z,20.60
2022-08-26T09:50:13.793Z,20.40
2022-08-26T09:52:42.766Z,20.20
2022-08-26T09:55:23.640Z,20.30
2022-08-26T09:57:54.500Z,20.20
2022-08-26T10:00:39.648Z,20.40
2022-08-26T10:03:18.205Z,20.40
2022-08-26T10:06:04.965Z,20.50
2022-08-26T10:08:37.315Z,20.40
2022-08-26T10:11:22.680Z,20.50
2022-08-26T10:13:56.129Z,20.70
2022-08-26T10:16:35.843Z,20.80
2022-08-26T10:19:09.488Z,21.00
2022-08-26T10:21:53.076Z,21.00
2022-08-26T10:24:31.957Z,20.90
2022-08-26T10:27:13.986Z,20.90
2022-08-26T10:29:46.990Z,21.00
2022-08-26T10:32:28.732Z,20.90
2022-08-26T10:34:57.108Z,20.80
2022-08-26T10:37:44.031Z,20.60
2022-08-26T10:40:17.241Z,20.50
2022-08-26T10:43:00.712Z,20.40
2022-08-26T10:45:30.956Z,20.40
2022-08-26T10:48:12.823Z,20.50
2022-08-26T10:50:44.508Z,20.50
2022-08-26T10:53:28.699Z,20.50
2022-08-26T10:56:06.696Z,20.50
2022-08-26T10:59:12.298Z,20.50
2022-08-26T11:01:51.122Z,20.50
2022-08-26T11:04:52.737Z,20.60
2022-08-26T11:07:42.172Z,20.60
2022-08-26T11:10:47.294Z,20.60
2022-08-26T11:13:17.481Z,20.70
2022-08-26T11:16:15.807Z,20.70
2022-08-26T11:18:48.901Z,20.80
2022-08-26T11:21:57.853Z,20.80
2022-08-26T11:25:01.998Z,20.80
2022-08-26T11:28:12.730Z,20.80
2022-08-26T11:30:58.111Z,20.90
2022-08-26T11:33:59.582Z,21.00
2022-08-26T11:37:04.120Z,20.90
2022-08-26T11:39:38.668Z,20.80
2022-08-26T11:42:35.099Z,20.90
2022-08-26T11:45:15.574Z,20.90
2022-08-26T11:47:51.867Z,20.90
2022-08-26T11:50:26.235Z,20.80
2022-08-26T11:53:03.848Z,20.90
2022-08-26T11:55:37.145Z,21.00
2022-08-26T11:58:13.777Z,21.00
2022-08-26T12:00:53.119Z,21.00
2022-08-26T12:03:38.014Z,21.10
2022-08-26T12:06:15.772Z,21.20
2022-08-26T12:08:52.808Z,21.20
2022-08-26T12:11:24.718Z,21.40
2022-08-26T12:14:04.876Z,21.40
2022-08-26T12:16:37.912Z,21.40
2022-08-26T12:19:33.282Z,21.40
2022-08-26T12:22:08.957Z,21.70
2022-08-26T12:24:44.080Z,21.90
2022-08-26T12:27:18.477Z,21.70
2022-08-26T12:30:08.485Z,21.60
2022-08-26T12:32:39.116Z,21.80
2022-08-26T12:35:31.883Z,22.00
2022-08-26T12:38:02.598Z,22.20
2022-08-26T12:40:47.942Z,22.50
2022-08-26T12:43:36.995Z,22.90
2022-08-26T12:46:12.946Z,23.00
2022-08-26T12:48:45.911Z,22.40
2022-08-26T12:51:31.163Z,22.30
2022-08-26T12:54:06.750Z,22.20
2022-08-26T12:56:45.857Z,22.20
2022-08-26T12:59:25.246Z,22.00
2022-08-26T13:02:01.205Z,21.90
2022-08-26T13:04:42.033Z,21.90
2022-08-26T13:07:29.186Z,22.00
2022-08-26T13:10:01.049Z,22.20
2022-08-26T13:12:37.935Z,22.30
2022-08-26T13:15:08.205Z,22.40
2022-08-26T13:17:42.935Z,22.40
2022-08-26T13:20:11.964Z,22.40
2022-08-26T13:22:46.823Z,22.30
2022-08-26T13:25:28.545Z,22.20
2022-08-26T13:28:03.825Z,22.10
2022-08-26T13:30:32.147Z,22.30
2022-08-26T13:33:09.309Z,22.50
2022-08-26T13:35:40.874Z,22.50
2022-08-26T13:38:33.312Z,22.40
2022-08-26T13:41:06.104Z,22.20
2022-08-26T13:43:40.789Z,22.30
2022-08-26T13:46:09.171Z,22.30
2022-08-26T13:48:44.903Z,22.20
2022-08-26T13:51:13.235Z,22.10
2022-08-26T13:53:47.859Z,22.20
2022-08-26T13:56:18.822Z,22.00
2022-08-26T13:58:54.188Z,21.90
2022-08-26T14:01:25.906Z,22.10
2022-08-26T14:04:09.999Z,22.20
2022-08-26T14:06:38.350Z,22.30
2022-08-26T14:09:13.220Z,22.10
2022-08-26T14:11:54.058Z,22.30
2022-08-26T14:14:29.903Z,22.50
2022-08-26T14:17:00.527Z,22.40
2022-08-26T14:19:37.005Z,22.50
2022-08-26T14:22:05.957Z,22.30
2022-08-26T14:24:41.212Z,22.30
2022-08-26T14:27:11.185Z,22.30
2022-08-26T14:29:46.009Z,22.20
2022-08-26T14:32:21.060Z,22.10
2022-08-26T14:34:57.904Z,22.20
2022-08-26T14:37:26.747Z,22.00
2022-08-26T14:40:02.294Z,22.10
2022-08-26T14:42:32.531Z,22.10
2022-08-26T14:45:11.036Z,22.20
2022-08-26T14:47:39.364Z,22.40
2022-08-26T14:50:17.041Z,22.50
2022-08-26T14:53:03.014Z,22.40
2022-08-26T14:55:41.249Z,22.30
2022-08-26T14:58:11.349Z,22.30
2022-08-26T15:00:45.888Z,22.30
2022-08-26T15:03:35.041Z,22.20
2022-08-26T15:06:10.032Z,22.20
2022-08-26T15:08:38.806Z,22.30
2022-08-26T15:11:14.064Z,22.40
2022-08-26T15:13:43.708Z,22.30
2022-08-26T15:16:19.023Z,22.10
2022-08-26T15:18:47.347Z,21.90
2022-08-26T15:21:22.073Z,21.70
2022-08-26T15:23:54.839Z,21.80
2022-08-26T15:26:32.310Z,21.90
2022-08-26T15:29:05.221Z,22.10
2022-08-26T15:31:42.024Z,22.10
2022-08-26T15:34:16.472Z,22.10
2022-08-26T15:36:53.299Z,22.10
2022-08-26T15:39:22.157Z,22.00
2022-08-26T15:41:57.068Z,22.00
2022-08-26T15:44:27.535Z,22.00
2022-08-26T15:47:03.340Z,21.80
2022-08-26T15:49:31.821Z,21.70
2022-08-26T15:52:06.311Z,21.70
2022-08-26T15:54:35.229Z,21.60
2022-08-26T15:57:12.334Z,21.70
2022-08-26T15:59:43.812Z,21.60
2022-08-26T16:02:19.028Z,21.70
2022-08-26T16:05:07.019Z,21.70
2022-08-26T16:07:35.657Z,21.70
2022-08-26T16:10:03.836Z,21.80
2022-08-26T16:12:39.386Z,21.70
2022-08-26T16:15:11.645Z,21.70
2022-08-26T16:17:46.983Z,21.80
2022-08-26T16:20:15.863Z,21.70
2022-08-26T16:22:51.111Z,21.60
2022-08-26T16:25:20.561Z,21.50
2022-08-26T16:27:55.369Z,21.50
2022-08-26T16:30:25.569Z,21.40
2022-08-26T16:33:02.475Z,21.40
2022-08-26T16:35:30.986Z,21.60
2022-08-26T16:38:06.140Z,21.60
2022-08-26T16:40:41.160Z,21.70
2022-08-26T16:43:09.779Z,21.80
2022-08-26T16:45:51.066Z,21.80
2022-08-26T16:48:20.965Z,21.70
2022-08-26T16:50:56.129Z,21.60
2022-08-26T16:53:24.807Z,21.60
2022-08-26T16:55:59.977Z,21.40
2022-08-26T16:58:28.420Z,21.40
2022-08-26T17:01:05.170Z,21.30
2022-08-26T17:03:53.054Z,21.30
2022-08-26T17:06:28.055Z,21.30
2022-08-26T17:08:56.593Z,21.20
2022-08-26T17:11:31.084Z,21.20
2022-08-26T17:13:59.334Z,20.90
2022-08-26T17:16:36.066Z,21.00
2022-08-26T17:19:05.964Z,21.00
2022-08-26T17:21:42.449Z,21.00
2022-08-26T17:24:10.945Z,21.10
2022-08-26T17:26:50.713Z,21.10
2022-08-26T17:29:22.026Z,21.00
2022-08-26T17:31:59.086Z,21.00
2022-08-26T17:34:27.648Z,20.90
2022-08-26T17:37:02.063Z,20.90
2022-08-26T17:39:30.413Z,21.00
2022-08-26T17:42:05.082Z,21.00
2022-08-26T17:44:33.529Z,21.10
2022-08-26T17:47:10.105Z,21.10
2022-08-26T17:49:38.690Z,21.10
2022-08-26T17:52:13.646Z,21.10
2022-08-26T17:54:42.320Z,20.90
2022-08-26T17:57:17.462Z,20.80
2022-08-26T17:59:47.202Z,20.80
2022-08-26T18:02:24.481Z,20.70
2022-08-26T18:05:05.455Z,20.70
2022-08-26T18:07:43.996Z,20.60
2022-08-26T18:10:15.453Z,20.60
2022-08-26T18:12:50.188Z,20.50
2022-08-26T18:15:18.978Z,20.50
2022-08-26T18:17:55.252Z,20.40
2022-08-26T18:20:23.642Z,20.40
2022-08-26T18:23:01.127Z,20.40
2022-08-26T18:25:29.376Z,20.30
2022-08-26T18:28:04.242Z,20.30
2022-08-26T18:30:32.530Z,20.20
2022-08-26T18:33:09.450Z,20.20
2022-08-26T18:35:40.104Z,20.20
2022-08-26T18:38:17.760Z,20.20
2022-08-26T18:40:47.770Z,20.10
2022-08-26T18:43:22.253Z,20.10
2022-08-26T18:45:50.847Z,20.00
2022-08-26T18:48:27.473Z,19.90
2022-08-26T18:50:55.647Z,19.90
2022-08-26T18:53:30.267Z,19.90
2022-08-26T18:55:58.730Z,19.80
2022-08-26T18:58:34.254Z,19.70
2022-08-26T19:01:03.002Z,19.70
2022-08-26T19:03:40.293Z,19.60
2022-08-26T19:06:19.250Z,19.60
2022-08-26T19:08:54.304Z,19.50
2022-08-26T19:11:31.746Z,19.50
2022-08-26T19:14:08.327Z,19.50
2022-08-26T19:16:37.661Z,19.40
2022-08-26T19:19:14.206Z,19.40
2022-08-26T19:21:42.877Z,19.40
2022-08-26T19:24:22.149Z,19.30
2022-08-26T19:26:57.698Z,19.30
2022-08-26T19:29:36.290Z,19.20
2022-08-26T19:32:05.332Z,19.20
2022-08-26T19:34:42.634Z,19.20
2022-08-26T19:37:11.005Z,19.20
2022-08-26T19:39:46.198Z,19.00
2022-08-26T19:42:15.159Z,19.00
2022-08-26T19:45:07.294Z,19.00
2022-08-26T19:47:48.217Z,18.90
2022-08-26T19:50:18.753Z,18.90
2022-08-26T19:52:47.142Z,18.90
2022-08-26T19:55:24.313Z,18.80
2022-08-26T19:57:53.725Z,18.80
2022-08-26T20:00:31.305Z,18.70
2022-08-26T20:03:15.837Z,18.70
2022-08-26T20:05:52.755Z,18.60
2022-08-26T20:08:28.171Z,18.50
2022-08-26T20:11:01.269Z,18.50
2022-08-26T20:13:36.337Z,18.40
2022-08-26T20:16:05.399Z,18.40
2022-08-26T20:18:57.297Z,18.30
2022-08-26T20:21:30.067Z,18.30
2022-08-26T20:24:07.324Z,18.20
2022-08-26T20:26:38.220Z,18.20
2022-08-26T20:29:14.370Z,18.10
2022-08-26T20:31:44.149Z,18.10
2022-08-26T20:34:20.366Z,18.10
2022-08-26T20:36:51.760Z,18.10
2022-08-26T20:39:28.613Z,18.00
2022-08-26T20:41:57.939Z,18.00
2022-08-26T20:44:33.253Z,18.00
2022-08-26T20:47:01.589Z,18.00
2022-08-26T20:49:38.394Z,18.00
2022-08-26T20:52:08.339Z,18.00
2022-08-26T20:54:44.217Z,17.90
2022-08-26T20:57:12.788Z,17.90
2022-08-26T20:59:47.602Z,17.80
2022-08-26T21:02:16.059Z,17.80
2022-08-26T21:05:04.324Z,17.70
2022-08-26T21:07:34.271Z,17.70
2022-08-26T21:10:09.647Z,17.70
2022-08-26T21:12:37.840Z,17.80
2022-08-26T21:15:14.444Z,17.70
2022-08-26T21:17:42.722Z,17.70
2022-08-26T21:20:18.402Z,17.60
2022-08-26T21:22:56.908Z,17.50
2022-08-26T21:25:32.304Z,17.50
2022-08-26T21:28:00.642Z,17.40
2022-08-26T21:30:35.630Z,17.40
2022-08-26T21:33:04.111Z,17.40
2022-08-26T21:35:39.374Z,17.30
2022-08-26T21:38:09.215Z,17.30
2022-08-26T21:40:44.690Z,17.20
2022-08-26T21:43:16.207Z,17.20
2022-08-26T21:46:14.871Z,17.10
2022-08-26T21:48:49.946Z,17.10
2022-08-26T21:51:27.332Z,17.10
2022-08-26T21:53:58.791Z,17.10
2022-08-26T21:56:40.346Z,17.10
2022-08-26T21:59:09.486Z,17.10
2022-08-26T22:01:45.336Z,17.00
2022-08-26T22:04:33.672Z,17.00
2022-08-26T22:07:08.343Z,17.00
2022-08-26T22:09:38.935Z,17.00
2022-08-26T22:12:19.354Z,17.00
2022-08-26T22:14:48.146Z,17.00
2022-08-26T22:17:23.453Z,17.00
2022-08-26T22:19:51.884Z,17.00
2022-08-26T22:22:26.439Z,17.00
2022-08-26T22:24:56.564Z,16.90
2022-08-26T22:27:31.303Z,16.90
2022-08-26T22:29:59.724Z,16.90
2022-08-26T22:32:34.463Z,16.90
2022-08-26T22:35:03.157Z,16.90
2022-08-26T22:37:58.497Z,16.90
2022-08-26T22:40:35.723Z,16.90
2022-08-26T22:43:05.378Z,16.90
2022-08-26T22:45:40.432Z,16.90
2022-08-26T22:48:09.154Z,16.90
2022-08-26T22:50:44.477Z,16.90
2022-08-26T22:53:12.854Z,16.90
2022-08-26T22:55:50.378Z,16.90
2022-08-26T22:58:19.836Z,16.90
2022-08-26T23:00:55.736Z,16.90
2022-08-26T23:03:24.086Z,16.80
2022-08-26T23:06:06.490Z,16.80
2022-08-26T23:08:35.370Z,16.70
2022-08-26T23:11:15.420Z,16.80
2022-08-26T23:13:47.246Z,16.70
2022-08-26T23:16:22.449Z,16.70
2022-08-26T23:18:50.892Z,16.70
2022-08-26T23:21:25.321Z,16.70
2022-08-26T23:23:53.549Z,16.60
2022-08-26T23:26:29.354Z,16.60
2022-08-26T23:28:57.878Z,16.60
2022-08-26T23:31:32.851Z,16.60
2022-08-26T23:34:18.714Z,16.60
2022-08-26T23:36:54.428Z,16.60
2022-08-26T23:39:23.269Z,16.60
2022-08-26T23:41:59.365Z,16.60
2022-08-26T23:44:28.451Z,16.50
2022-08-26T23:47:03.545Z,16.50
2022-08-26T23:49:32.354Z,16.50
2022-08-26T23:52:24.522Z,16.50
2022-08-26T23:54:53.137Z,16.40
2022-08-26T23:57:31.449Z,16.40
2022-08-26T23:59:59.611Z,16.50
